Airfield :
LOGIN :

Register | Disclaimer

   EN    FR    IT 

 










Legend :    VFR   Marginal VFR   IFR   Intensive IFR   Very Intensive IFR
Visi :
Ceiling :
>= 8 km
>= 3000ft
5 to 8 km
1000 to 3000 ft
1500m to 5 km
500 to 1000 ft
800 to 1500m
200 to 500 ft
< 800m
< 200 ft
Symbols :   Thunderstorms  Fog  Heavy snow  Heavy precipitations  Wind > 20 kt
SIGMETs :     Misc.  Thunderstorms  Icing  Turbulence  Mountain Waves  Volcanic Ashes






- Airport Elevation : 1416 ft
- IATA code : ZRH


LSZH - Zurich

CURRENT METAR :
  • 041150Z 30003KT 200V360 9999 FEW030 24/16 Q1020 NOSIG

EXPIRED METARs :
  • 041120Z VRB03KT 9999 FEW028 23/16 Q1020 NOSIG
  • 041050Z VRB02KT 9999 FEW028 23/17 Q1020 NOSIG
  • 041020Z VRB02KT 9999 FEW024 22/16 Q1020 NOSIG
  • 040950Z VRB02KT 9999 FEW024 22/16 Q1020 NOSIG
  • 040920Z VRB02KT 9999 FEW020 21/16 Q1021 NOSIG
  • 040850Z 02004KT 340V070 9999 FEW018 21/17 Q1020 NOSIG

TAF TAF LSZH
Valid from the 04 at 12:00 until the 05 at 18:00 UTC


041125Z 0412/0518 VRB02KT 9999 FEW025 TX24/0414Z TN15/0504Z TX27/0515Z
TEMPO 0412/0419 30008KT
TEMPO 0414/0424 SHRA SCT050TCU
PROB40
TEMPO 0415/0419 24012G25KT TSRA SCT050CB
BECMG 0510/0513 32008KT
ATIS : +41 43 816 2295 (DEP) +41 43 816 2294 (ARR)



MET'MAP, your aeronautical weather chart ! - Copyright ORBIFLY December 2007 - Disclaimer

ORBIFLY MET'MAP TEAM :

Programming & Development : Alexandra Zaïnal
Original concept : Baudouin d'Aumeries
Technical & hardware support : Manuel Goepfert
Assistance : Marc-Olivier Méhu




SOURCES & CREDITS :

   NOAA